sensor_id;sensor_type;location;lat;lon;timestamp;P1;durP1;ratioP1;P2;durP2;ratioP2
4692;SDS011;11710;48.024;16.296;2023-04-22T06:39:07;17.83;;;14.20;;
4692;SDS011;11710;48.024;16.296;2023-04-22T06:41:35;20.00;;;15.20;;
4692;SDS011;11710;48.024;16.296;2023-04-22T06:44:03;19.47;;;14.10;;
4692;SDS011;11710;48.024;16.296;2023-04-22T06:46:30;20.40;;;15.30;;
4692;SDS011;11710;48.024;16.296;2023-04-22T06:48:58;23.10;;;14.47;;
4692;SDS011;11710;48.024;16.296;2023-04-22T06:51:25;20.43;;;13.80;;
4692;SDS011;11710;48.024;16.296;2023-04-22T06:53:52;17.73;;;14.40;;
4692;SDS011;11710;48.024;16.296;2023-04-22T06:56:23;18.83;;;14.03;;
4692;SDS011;11710;48.024;16.296;2023-04-22T06:58:51;18.27;;;12.60;;
4692;SDS011;11710;48.024;16.296;2023-04-22T07:01:18;18.50;;;13.27;;
4692;SDS011;11710;48.024;16.296;2023-04-22T07:03:46;19.00;;;12.57;;
4692;SDS011;11710;48.024;16.296;2023-04-22T07:06:13;17.30;;;12.50;;
4692;SDS011;11710;48.024;16.296;2023-04-22T07:08:41;17.90;;;13.17;;
4692;SDS011;11710;48.024;16.296;2023-04-22T07:11:09;16.50;;;12.93;;
4692;SDS011;11710;48.024;16.296;2023-04-22T07:13:38;17.23;;;12.30;;
4692;SDS011;11710;48.024;16.296;2023-04-22T07:16:05;17.10;;;12.90;;
4692;SDS011;11710;48.024;16.296;2023-04-22T07:18:33;23.20;;;12.87;;
4692;SDS011;11710;48.024;16.296;2023-04-22T07:21:01;14.67;;;11.20;;
4692;SDS011;11710;48.024;16.296;2023-04-22T07:23:28;16.97;;;11.27;;
4692;SDS011;11710;48.024;16.296;2023-04-22T07:25:55;15.43;;;10.77;;
4692;SDS011;11710;48.024;16.296;2023-04-22T07:28:23;15.20;;;9.63;;
4692;SDS011;11710;48.024;16.296;2023-04-22T07:30:52;12.77;;;10.27;;
4692;SDS011;11710;48.024;16.296;2023-04-22T07:33:20;14.23;;;10.50;;
4692;SDS011;11710;48.024;16.296;2023-04-22T07:35:47;14.27;;;10.50;;
4692;SDS011;11710;48.024;16.296;2023-04-22T07:38:15;19.93;;;10.77;;
4692;SDS011;11710;48.024;16.296;2023-04-22T07:40:42;16.40;;;11.83;;
4692;SDS011;11710;48.024;16.296;2023-04-22T07:43:09;16.40;;;10.37;;
4692;SDS011;11710;48.024;16.296;2023-04-22T07:45:37;13.83;;;11.27;;
4692;SDS011;11710;48.024;16.296;2023-04-22T07:48:06;15.13;;;10.70;;
4692;SDS011;11710;48.024;16.296;2023-04-22T07:50:33;12.90;;;10.50;;
4692;SDS011;11710;48.024;16.296;2023-04-22T07:53:01;18.43;;;11.07;;
4692;SDS011;11710;48.024;16.296;2023-04-22T07:55:28;15.70;;;10.60;;
4692;SDS011;11710;48.024;16.296;2023-04-22T07:57:55;16.20;;;10.70;;
4692;SDS011;11710;48.024;16.296;2023-04-22T08:00:25;12.07;;;10.20;;
4692;SDS011;11710;48.024;16.296;2023-04-22T08:02:52;14.00;;;9.73;;
4692;SDS011;11710;48.024;16.296;2023-04-22T08:05:21;18.47;;;11.40;;
4692;SDS011;11710;48.024;16.296;2023-04-22T08:07:48;13.50;;;10.80;;
4692;SDS011;11710;48.024;16.296;2023-04-22T08:10:16;15.80;;;11.10;;
4692;SDS011;11710;48.024;16.296;2023-04-22T08:12:43;16.60;;;10.13;;
4692;SDS011;11710;48.024;16.296;2023-04-22T08:15:11;12.07;;;10.63;;
4692;SDS011;11710;48.024;16.296;2023-04-22T08:17:38;15.70;;;10.80;;
4692;SDS011;11710;48.024;16.296;2023-04-22T08:20:07;16.13;;;10.40;;
4692;SDS011;11710;48.024;16.296;2023-04-22T08:22:36;13.90;;;11.27;;
4692;SDS011;11710;48.024;16.296;2023-04-22T08:25:05;12.00;;;9.57;;
4692;SDS011;11710;48.024;16.296;2023-04-22T08:27:33;13.73;;;11.20;;
4692;SDS011;11710;48.024;16.296;2023-04-22T08:30:00;15.97;;;11.70;;
4692;SDS011;11710;48.024;16.296;2023-04-22T08:32:28;14.10;;;10.23;;
4692;SDS011;11710;48.024;16.296;2023-04-22T08:34:55;12.77;;;11.07;;
4692;SDS011;11710;48.024;16.296;2023-04-22T08:37:23;13.97;;;11.03;;
4692;SDS011;11710;48.024;16.296;2023-04-22T08:39:52;17.50;;;10.37;;
4692;SDS011;11710;48.024;16.296;2023-04-22T08:42:20;16.83;;;12.27;;
4692;SDS011;11710;48.024;16.296;2023-04-22T08:44:47;12.27;;;10.97;;
4692;SDS011;11710;48.024;16.296;2023-04-22T08:47:15;15.57;;;11.00;;
4692;SDS011;11710;48.024;16.296;2023-04-22T08:49:44;16.40;;;11.80;;
4692;SDS011;11710;48.024;16.296;2023-04-22T08:52:12;13.73;;;10.80;;
4692;SDS011;11710;48.024;16.296;2023-04-22T08:54:40;17.57;;;10.00;;
4692;SDS011;11710;48.024;16.296;2023-04-22T08:57:08;16.73;;;11.60;;
4692;SDS011;11710;48.024;16.296;2023-04-22T08:59:36;17.67;;;11.73;;
4692;SDS011;11710;48.024;16.296;2023-04-22T09:02:04;14.50;;;11.10;;
4692;SDS011;11710;48.024;16.296;2023-04-22T09:04:33;12.53;;;10.20;;
4692;SDS011;11710;48.024;16.296;2023-04-22T09:07:00;11.93;;;10.77;;
4692;SDS011;11710;48.024;16.296;2023-04-22T09:09:28;19.93;;;11.37;;
4692;SDS011;11710;48.024;16.296;2023-04-22T09:11:56;11.37;;;10.17;;
4692;SDS011;11710;48.024;16.296;2023-04-22T09:14:25;11.53;;;9.90;;
4692;SDS011;11710;48.024;16.296;2023-04-22T09:16:53;18.23;;;11.20;;
4692;SDS011;11710;48.024;16.296;2023-04-22T09:19:24;12.43;;;10.53;;
4692;SDS011;11710;48.024;16.296;2023-04-22T09:21:51;13.23;;;9.97;;
4692;SDS011;11710;48.024;16.296;2023-04-22T09:24:19;10.83;;;8.70;;
4692;SDS011;11710;48.024;16.296;2023-04-22T09:26:46;17.37;;;9.97;;
4692;SDS011;11710;48.024;16.296;2023-04-22T09:29:18;12.03;;;8.70;;
4692;SDS011;11710;48.024;16.296;2023-04-22T09:31:50;11.37;;;8.77;;
4692;SDS011;11710;48.024;16.296;2023-04-22T09:34:18;10.53;;;9.07;;
4692;SDS011;11710;48.024;16.296;2023-04-22T09:36:49;14.50;;;9.07;;
4692;SDS011;11710;48.024;16.296;2023-04-22T09:39:16;10.93;;;7.90;;
4692;SDS011;11710;48.024;16.296;2023-04-22T09:41:44;11.40;;;7.90;;
4692;SDS011;11710;48.024;16.296;2023-04-22T09:44:14;13.50;;;8.57;;
4692;SDS011;11710;48.024;16.296;2023-04-22T09:46:42;13.87;;;7.83;;
4692;SDS011;11710;48.024;16.296;2023-04-22T09:49:11;10.30;;;7.80;;
4692;SDS011;11710;48.024;16.296;2023-04-22T09:51:42;9.33;;;7.20;;
4692;SDS011;11710;48.024;16.296;2023-04-22T09:54:09;10.17;;;7.73;;
4692;SDS011;11710;48.024;16.296;2023-04-22T09:56:46;9.90;;;7.27;;
4692;SDS011;11710;48.024;16.296;2023-04-22T09:59:18;11.10;;;7.93;;
4692;SDS011;11710;48.024;16.296;2023-04-22T10:01:46;8.77;;;7.87;;
4692;SDS011;11710;48.024;16.296;2023-04-22T10:04:16;10.70;;;6.43;;
4692;SDS011;11710;48.024;16.296;2023-04-22T10:06:45;9.80;;;6.60;;
4692;SDS011;11710;48.024;16.296;2023-04-22T10:09:13;9.43;;;7.13;;
4692;SDS011;11710;48.024;16.296;2023-04-22T10:11:41;10.63;;;6.87;;
4692;SDS011;11710;48.024;16.296;2023-04-22T10:14:08;11.77;;;8.10;;
4692;SDS011;11710;48.024;16.296;2023-04-22T10:16:38;9.93;;;7.37;;
4692;SDS011;11710;48.024;16.296;2023-04-22T10:19:06;8.97;;;6.60;;
4692;SDS011;11710;48.024;16.296;2023-04-22T10:21:36;8.90;;;5.93;;
4692;SDS011;11710;48.024;16.296;2023-04-22T10:24:04;8.33;;;6.40;;
4692;SDS011;11710;48.024;16.296;2023-04-22T10:26:38;10.83;;;6.23;;
4692;SDS011;11710;48.024;16.296;2023-04-22T10:29:06;9.07;;;6.67;;
4692;SDS011;11710;48.024;16.296;2023-04-22T10:31:36;11.80;;;6.50;;
4692;SDS011;11710;48.024;16.296;2023-04-22T10:34:10;11.03;;;6.90;;
4692;SDS011;11710;48.024;16.296;2023-04-22T10:36:53;16.97;;;6.73;;
4692;SDS011;11710;48.024;16.296;2023-04-22T10:39:21;6.83;;;6.13;;
4692;SDS011;11710;48.024;16.296;2023-04-22T10:41:49;9.13;;;6.33;;
4692;SDS011;11710;48.024;16.296;2023-04-22T10:44:17;13.30;;;6.67;;
4692;SDS011;11710;48.024;16.296;2023-04-22T10:46:54;8.37;;;6.13;;
4692;SDS011;11710;48.024;16.296;2023-04-22T10:49:22;8.33;;;6.50;;
4692;SDS011;11710;48.024;16.296;2023-04-22T10:51:50;9.80;;;6.60;;
4692;SDS011;11710;48.024;16.296;2023-04-22T10:57:03;6.87;;;5.83;;
4692;SDS011;11710;48.024;16.296;2023-04-22T10:59:31;7.10;;;6.00;;
4692;SDS011;11710;48.024;16.296;2023-04-22T11:02:00;8.23;;;6.70;;
4692;SDS011;11710;48.024;16.296;2023-04-22T11:04:27;10.70;;;6.60;;
4692;SDS011;11710;48.024;16.296;2023-04-22T11:07:13;6.20;;;5.33;;
4692;SDS011;11710;48.024;16.296;2023-04-22T11:09:42;7.20;;;5.50;;
4692;SDS011;11710;48.024;16.296;2023-04-22T11:14:57;7.53;;;6.50;;
4692;SDS011;11710;48.024;16.296;2023-04-22T11:17:25;8.20;;;5.80;;
4692;SDS011;11710;48.024;16.296;2023-04-22T11:19:52;8.23;;;5.77;;
4692;SDS011;11710;48.024;16.296;2023-04-22T11:22:21;9.97;;;5.50;;
4692;SDS011;11710;48.024;16.296;2023-04-22T11:24:53;6.70;;;6.10;;
4692;SDS011;11710;48.024;16.296;2023-04-22T11:27:20;7.80;;;5.87;;
4692;SDS011;11710;48.024;16.296;2023-04-22T11:30:01;11.50;;;6.00;;
4692;SDS011;11710;48.024;16.296;2023-04-22T11:32:31;6.57;;;5.47;;
4692;SDS011;11710;48.024;16.296;2023-04-22T11:35:01;7.77;;;5.87;;
4692;SDS011;11710;48.024;16.296;2023-04-22T11:37:30;7.23;;;5.77;;
4692;SDS011;11710;48.024;16.296;2023-04-22T11:40:05;6.67;;;5.37;;
4692;SDS011;11710;48.024;16.296;2023-04-22T11:42:34;7.97;;;5.90;;
4692;SDS011;11710;48.024;16.296;2023-04-22T11:45:04;7.33;;;5.80;;
4692;SDS011;11710;48.024;16.296;2023-04-22T11:47:32;7.57;;;5.70;;
4692;SDS011;11710;48.024;16.296;2023-04-22T11:50:01;9.43;;;6.10;;
4692;SDS011;11710;48.024;16.296;2023-04-22T11:52:44;6.30;;;5.50;;
4692;SDS011;11710;48.024;16.296;2023-04-22T11:55:13;5.87;;;5.37;;
4692;SDS011;11710;48.024;16.296;2023-04-22T11:57:44;8.80;;;5.73;;
4692;SDS011;11710;48.024;16.296;2023-04-22T12:00:18;5.93;;;5.33;;
4692;SDS011;11710;48.024;16.296;2023-04-22T12:02:59;8.03;;;5.43;;
4692;SDS011;11710;48.024;16.296;2023-04-22T12:05:31;5.60;;;5.10;;
4692;SDS011;11710;48.024;16.296;2023-04-22T12:08:05;9.73;;;5.50;;
4692;SDS011;11710;48.024;16.296;2023-04-22T12:10:38;10.13;;;6.07;;
4692;SDS011;11710;48.024;16.296;2023-04-22T12:13:16;9.13;;;5.67;;
4692;SDS011;11710;48.024;16.296;2023-04-22T12:15:46;7.40;;;5.50;;
4692;SDS011;11710;48.024;16.296;2023-04-22T12:18:14;6.23;;;5.50;;
4692;SDS011;11710;48.024;16.296;2023-04-22T12:20:41;5.77;;;4.83;;
4692;SDS011;11710;48.024;16.296;2023-04-22T12:23:12;6.30;;;5.07;;
4692;SDS011;11710;48.024;16.296;2023-04-22T12:25:40;9.27;;;5.57;;
4692;SDS011;11710;48.024;16.296;2023-04-22T12:28:09;6.20;;;5.60;;
4692;SDS011;11710;48.024;16.296;2023-04-22T12:30:37;6.03;;;4.83;;
4692;SDS011;11710;48.024;16.296;2023-04-22T12:33:05;7.20;;;5.40;;
4692;SDS011;11710;48.024;16.296;2023-04-22T12:35:33;7.67;;;6.37;;
4692;SDS011;11710;48.024;16.296;2023-04-22T12:38:00;6.20;;;5.57;;
4692;SDS011;11710;48.024;16.296;2023-04-22T12:40:27;5.57;;;5.07;;
4692;SDS011;11710;48.024;16.296;2023-04-22T12:42:55;5.97;;;5.37;;
4692;SDS011;11710;48.024;16.296;2023-04-22T12:45:22;5.67;;;5.17;;
4692;SDS011;11710;48.024;16.296;2023-04-22T12:47:49;6.60;;;6.00;;
4692;SDS011;11710;48.024;16.296;2023-04-22T12:50:21;13.57;;;5.80;;
4692;SDS011;11710;48.024;16.296;2023-04-22T12:52:48;6.27;;;5.23;;
4692;SDS011;11710;48.024;16.296;2023-04-22T12:55:15;7.73;;;5.70;;
4692;SDS011;11710;48.024;16.296;2023-04-22T12:57:46;6.40;;;5.73;;
4692;SDS011;11710;48.024;16.296;2023-04-22T13:00:15;9.03;;;5.67;;
4692;SDS011;11710;48.024;16.296;2023-04-22T13:02:44;7.27;;;5.90;;
4692;SDS011;11710;48.024;16.296;2023-04-22T13:05:13;8.10;;;6.10;;
4692;SDS011;11710;48.024;16.296;2023-04-22T13:07:42;5.53;;;5.00;;
4692;SDS011;11710;48.024;16.296;2023-04-22T13:10:11;7.70;;;5.63;;
4692;SDS011;11710;48.024;16.296;2023-04-22T13:12:39;6.27;;;5.67;;
4692;SDS011;11710;48.024;16.296;2023-04-22T13:15:08;7.53;;;5.87;;
4692;SDS011;11710;48.024;16.296;2023-04-22T13:17:36;7.43;;;5.73;;
4692;SDS011;11710;48.024;16.296;2023-04-22T13:20:05;5.50;;;5.10;;
4692;SDS011;11710;48.024;16.296;2023-04-22T13:22:33;8.00;;;6.20;;
4692;SDS011;11710;48.024;16.296;2023-04-22T13:25:03;8.43;;;5.97;;
4692;SDS011;11710;48.024;16.296;2023-04-22T13:27:31;5.73;;;5.23;;
4692;SDS011;11710;48.024;16.296;2023-04-22T13:29:58;7.73;;;5.47;;
4692;SDS011;11710;48.024;16.296;2023-04-22T13:32:25;6.00;;;5.50;;
4692;SDS011;11710;48.024;16.296;2023-04-22T13:34:52;8.23;;;6.33;;
4692;SDS011;11710;48.024;16.296;2023-04-22T13:37:20;7.20;;;6.10;;
4692;SDS011;11710;48.024;16.296;2023-04-22T13:39:47;10.63;;;5.20;;
4692;SDS011;11710;48.024;16.296;2023-04-22T13:42:16;9.80;;;6.30;;
4692;SDS011;11710;48.024;16.296;2023-04-22T13:44:45;6.70;;;5.70;;
4692;SDS011;11710;48.024;16.296;2023-04-22T13:47:12;8.87;;;5.57;;
4692;SDS011;11710;48.024;16.296;2023-04-22T13:49:40;6.00;;;5.40;;
4692;SDS011;11710;48.024;16.296;2023-04-22T13:52:07;7.27;;;5.77;;
4692;SDS011;11710;48.024;16.296;2023-04-22T13:54:34;8.17;;;5.63;;
4692;SDS011;11710;48.024;16.296;2023-04-22T13:57:02;7.53;;;5.10;;
4692;SDS011;11710;48.024;16.296;2023-04-22T13:59:33;8.23;;;5.63;;
4692;SDS011;11710;48.024;16.296;2023-04-22T14:02:01;6.20;;;5.60;;
4692;SDS011;11710;48.024;16.296;2023-04-22T14:04:28;5.60;;;5.00;;
4692;SDS011;11710;48.024;16.296;2023-04-22T14:06:55;5.90;;;5.30;;
4692;SDS011;11710;48.024;16.296;2023-04-22T14:09:22;7.00;;;5.80;;
4692;SDS011;11710;48.024;16.296;2023-04-22T14:11:50;7.10;;;4.83;;
4692;SDS011;11710;48.024;16.296;2023-04-22T14:14:17;5.63;;;5.13;;
4692;SDS011;11710;48.024;16.296;2023-04-22T14:16:46;9.20;;;5.50;;
4692;SDS011;11710;48.024;16.296;2023-04-22T14:19:13;6.00;;;5.40;;
4692;SDS011;11710;48.024;16.296;2023-04-22T14:21:40;6.50;;;5.27;;
4692;SDS011;11710;48.024;16.296;2023-04-22T14:24:08;6.87;;;5.57;;
4692;SDS011;11710;48.024;16.296;2023-04-22T14:26:35;5.97;;;5.37;;
4692;SDS011;11710;48.024;16.296;2023-04-22T14:29:02;5.50;;;5.00;;
4692;SDS011;11710;48.024;16.296;2023-04-22T14:31:29;5.90;;;5.30;;
4692;SDS011;11710;48.024;16.296;2023-04-22T14:33:58;5.13;;;4.60;;
4692;SDS011;11710;48.024;16.296;2023-04-22T14:36:25;6.13;;;5.53;;
4692;SDS011;11710;48.024;16.296;2023-04-22T14:38:52;7.07;;;5.33;;
4692;SDS011;11710;48.024;16.296;2023-04-22T14:41:20;8.10;;;5.70;;
4692;SDS011;11710;48.024;16.296;2023-04-22T14:43:47;6.20;;;5.50;;
4692;SDS011;11710;48.024;16.296;2023-04-22T14:46:14;6.73;;;5.83;;
4692;SDS011;11710;48.024;16.296;2023-04-22T14:48:42;7.63;;;5.57;;
4692;SDS011;11710;48.024;16.296;2023-04-22T14:51:10;6.13;;;4.87;;
4692;SDS011;11710;48.024;16.296;2023-04-22T14:53:37;5.50;;;5.00;;
4692;SDS011;11710;48.024;16.296;2023-04-22T14:56:05;6.00;;;5.40;;
4692;SDS011;11710;48.024;16.296;2023-04-22T14:58:33;6.90;;;5.20;;
4692;SDS011;11710;48.024;16.296;2023-04-22T15:01:00;7.10;;;5.23;;
4692;SDS011;11710;48.024;16.296;2023-04-22T15:03:27;8.33;;;4.80;;
4692;SDS011;11710;48.024;16.296;2023-04-22T15:05:54;7.27;;;5.43;;
4692;SDS011;11710;48.024;16.296;2023-04-22T15:08:23;10.80;;;5.50;;
4692;SDS011;11710;48.024;16.296;2023-04-22T15:10:50;7.20;;;5.60;;
4692;SDS011;11710;48.024;16.296;2023-04-22T15:13:18;6.07;;;5.07;;
4692;SDS011;11710;48.024;16.296;2023-04-22T15:15:45;5.80;;;5.30;;
4692;SDS011;11710;48.024;16.296;2023-04-22T15:18:12;6.67;;;5.23;;
4692;SDS011;11710;48.024;16.296;2023-04-22T15:20:39;7.33;;;5.13;;
4692;SDS011;11710;48.024;16.296;2023-04-22T15:23:06;9.90;;;5.17;;
4692;SDS011;11710;48.024;16.296;2023-04-22T15:25:35;6.33;;;5.50;;
4692;SDS011;11710;48.024;16.296;2023-04-22T15:28:03;6.70;;;5.30;;
4692;SDS011;11710;48.024;16.296;2023-04-22T15:30:30;7.30;;;5.40;;
4692;SDS011;11710;48.024;16.296;2023-04-22T15:32:57;5.20;;;4.70;;
4692;SDS011;11710;48.024;16.296;2023-04-22T15:35:24;6.10;;;5.37;;
4692;SDS011;11710;48.024;16.296;2023-04-22T15:37:51;7.60;;;5.30;;
4692;SDS011;11710;48.024;16.296;2023-04-22T15:40:21;6.77;;;5.10;;
4692;SDS011;11710;48.024;16.296;2023-04-22T15:42:50;8.40;;;5.10;;
4692;SDS011;11710;48.024;16.296;2023-04-22T15:45:17;6.83;;;4.97;;
4692;SDS011;11710;48.024;16.296;2023-04-22T15:47:45;8.83;;;5.80;;
4692;SDS011;11710;48.024;16.296;2023-04-22T15:50:12;6.07;;;5.47;;
4692;SDS011;11710;48.024;16.296;2023-04-22T15:52:40;7.27;;;5.43;;
4692;SDS011;11710;48.024;16.296;2023-04-22T15:55:07;9.27;;;6.23;;
4692;SDS011;11710;48.024;16.296;2023-04-22T15:57:35;6.13;;;5.50;;
4692;SDS011;11710;48.024;16.296;2023-04-22T16:00:04;6.20;;;4.80;;
4692;SDS011;11710;48.024;16.296;2023-04-22T16:02:34;5.80;;;5.20;;
4692;SDS011;11710;48.024;16.296;2023-04-22T16:05:01;5.60;;;5.10;;
4692;SDS011;11710;48.024;16.296;2023-04-22T16:07:29;6.30;;;5.20;;
4692;SDS011;11710;48.024;16.296;2023-04-22T16:09:57;9.40;;;5.37;;
4692;SDS011;11710;48.024;16.296;2023-04-22T16:12:24;6.57;;;5.00;;
4692;SDS011;11710;48.024;16.296;2023-04-22T16:14:51;9.93;;;5.30;;
4692;SDS011;11710;48.024;16.296;2023-04-22T16:17:19;5.87;;;5.03;;
4692;SDS011;11710;48.024;16.296;2023-04-22T16:19:47;11.13;;;5.13;;
4692;SDS011;11710;48.024;16.296;2023-04-22T16:22:14;8.80;;;5.37;;
4692;SDS011;11710;48.024;16.296;2023-04-22T16:24:42;7.30;;;5.50;;
4692;SDS011;11710;48.024;16.296;2023-04-22T16:27:09;7.70;;;5.23;;
4692;SDS011;11710;48.024;16.296;2023-04-22T16:29:40;5.80;;;5.13;;
4692;SDS011;11710;48.024;16.296;2023-04-22T16:32:07;7.50;;;5.00;;
4692;SDS011;11710;48.024;16.296;2023-04-22T16:34:36;6.97;;;5.30;;
4692;SDS011;11710;48.024;16.296;2023-04-22T16:37:03;6.30;;;5.10;;
4692;SDS011;11710;48.024;16.296;2023-04-22T16:39:30;6.43;;;5.13;;
4692;SDS011;11710;48.024;16.296;2023-04-22T16:41:57;6.10;;;5.07;;
4692;SDS011;11710;48.024;16.296;2023-04-22T16:44:26;6.47;;;5.77;;
4692;SDS011;11710;48.024;16.296;2023-04-22T16:46:53;11.00;;;5.60;;
4692;SDS011;11710;48.024;16.296;2023-04-22T16:49:20;7.43;;;4.90;;
4692;SDS011;11710;48.024;16.296;2023-04-22T16:51:49;9.73;;;5.70;;
4692;SDS011;11710;48.024;16.296;2023-04-22T16:54:17;7.07;;;5.43;;
4692;SDS011;11710;48.024;16.296;2023-04-22T16:56:44;8.90;;;5.60;;
4692;SDS011;11710;48.024;16.296;2023-04-22T16:59:12;6.20;;;5.13;;
4692;SDS011;11710;48.024;16.296;2023-04-22T17:01:39;5.50;;;5.00;;
4692;SDS011;11710;48.024;16.296;2023-04-22T17:04:07;7.73;;;4.87;;
4692;SDS011;11710;48.024;16.296;2023-04-22T17:06:35;9.60;;;5.23;;
4692;SDS011;11710;48.024;16.296;2023-04-22T17:09:04;9.53;;;5.60;;
4692;SDS011;11710;48.024;16.296;2023-04-22T17:11:31;13.63;;;5.30;;
4692;SDS011;11710;48.024;16.296;2023-04-22T17:13:59;5.97;;;5.33;;
4692;SDS011;11710;48.024;16.296;2023-04-22T17:16:26;8.60;;;5.60;;
4692;SDS011;11710;48.024;16.296;2023-04-22T17:18:53;8.03;;;5.73;;
4692;SDS011;11710;48.024;16.296;2023-04-22T17:21:21;8.60;;;5.30;;
4692;SDS011;11710;48.024;16.296;2023-04-22T17:23:49;8.53;;;5.60;;
4692;SDS011;11710;48.024;16.296;2023-04-22T17:26:18;8.43;;;5.47;;
4692;SDS011;11710;48.024;16.296;2023-04-22T17:28:45;7.80;;;5.80;;
4692;SDS011;11710;48.024;16.296;2023-04-22T17:31:13;8.20;;;5.50;;
4692;SDS011;11710;48.024;16.296;2023-04-22T17:33:40;6.80;;;5.63;;
4692;SDS011;11710;48.024;16.296;2023-04-22T17:36:07;6.70;;;5.50;;
4692;SDS011;11710;48.024;16.296;2023-04-22T17:38:35;8.67;;;5.70;;
4692;SDS011;11710;48.024;16.296;2023-04-22T17:41:05;6.00;;;5.40;;
4692;SDS011;11710;48.024;16.296;2023-04-22T17:43:34;7.20;;;6.17;;
4692;SDS011;11710;48.024;16.296;2023-04-22T17:46:01;7.90;;;5.40;;
4692;SDS011;11710;48.024;16.296;2023-04-22T17:48:29;8.87;;;5.17;;
4692;SDS011;11710;48.024;16.296;2023-04-22T17:50:57;9.20;;;5.40;;
4692;SDS011;11710;48.024;16.296;2023-04-22T17:53:29;7.63;;;5.30;;
4692;SDS011;11710;48.024;16.296;2023-04-22T17:55:57;7.17;;;6.20;;
4692;SDS011;11710;48.024;16.296;2023-04-22T17:58:25;12.53;;;5.63;;
4692;SDS011;11710;48.024;16.296;2023-04-22T18:00:54;8.03;;;5.77;;
4692;SDS011;11710;48.024;16.296;2023-04-22T18:03:22;7.87;;;5.20;;
4692;SDS011;11710;48.024;16.296;2023-04-22T18:05:50;7.67;;;5.50;;
4692;SDS011;11710;48.024;16.296;2023-04-22T18:08:17;6.27;;;5.57;;
4692;SDS011;11710;48.024;16.296;2023-04-22T18:10:44;5.90;;;5.30;;
4692;SDS011;11710;48.024;16.296;2023-04-22T18:13:12;8.90;;;5.80;;
4692;SDS011;11710;48.024;16.296;2023-04-22T18:15:39;10.30;;;5.80;;
4692;SDS011;11710;48.024;16.296;2023-04-22T18:18:08;12.43;;;6.03;;
4692;SDS011;11710;48.024;16.296;2023-04-22T18:20:36;9.33;;;6.00;;
4692;SDS011;11710;48.024;16.296;2023-04-22T18:23:03;9.30;;;6.17;;
4692;SDS011;11710;48.024;16.296;2023-04-22T18:25:30;8.70;;;6.20;;
4692;SDS011;11710;48.024;16.296;2023-04-22T18:27:58;7.70;;;6.27;;
4692;SDS011;11710;48.024;16.296;2023-04-22T18:30:25;7.73;;;6.00;;
4692;SDS011;11710;48.024;16.296;2023-04-22T18:32:53;9.93;;;6.07;;
4692;SDS011;11710;48.024;16.296;2023-04-22T18:35:22;7.80;;;5.80;;
4692;SDS011;11710;48.024;16.296;2023-04-22T18:37:49;10.70;;;6.53;;
4692;SDS011;11710;48.024;16.296;2023-04-22T18:40:17;7.00;;;5.40;;
4692;SDS011;11710;48.024;16.296;2023-04-22T18:42:45;6.97;;;5.43;;
4692;SDS011;11710;48.024;16.296;2023-04-22T18:45:12;8.17;;;5.87;;
4692;SDS011;11710;48.024;16.296;2023-04-22T18:47:40;9.57;;;6.50;;
4692;SDS011;11710;48.024;16.296;2023-04-22T18:50:09;16.50;;;6.50;;
4692;SDS011;11710;48.024;16.296;2023-04-22T18:52:38;7.33;;;5.47;;
4692;SDS011;11710;48.024;16.296;2023-04-22T18:55:06;15.73;;;5.90;;
4692;SDS011;11710;48.024;16.296;2023-04-22T18:57:33;8.80;;;6.90;;
4692;SDS011;11710;48.024;16.296;2023-04-22T19:00:02;10.10;;;6.33;;
4692;SDS011;11710;48.024;16.296;2023-04-22T19:02:30;7.87;;;5.90;;
4692;SDS011;11710;48.024;16.296;2023-04-22T19:04:58;8.57;;;6.40;;
4692;SDS011;11710;48.024;16.296;2023-04-22T19:07:25;8.83;;;5.53;;
4692;SDS011;11710;48.024;16.296;2023-04-22T19:09:54;10.23;;;6.53;;
4692;SDS011;11710;48.024;16.296;2023-04-22T19:12:21;6.33;;;5.70;;
4692;SDS011;11710;48.024;16.296;2023-04-22T19:14:49;7.90;;;5.73;;
4692;SDS011;11710;48.024;16.296;2023-04-22T19:17:17;6.53;;;5.00;;
4692;SDS011;11710;48.024;16.296;2023-04-22T19:19:44;8.80;;;5.80;;
4692;SDS011;11710;48.024;16.296;2023-04-22T19:22:11;11.17;;;6.10;;
4692;SDS011;11710;48.024;16.296;2023-04-22T19:24:40;9.60;;;5.63;;
4692;SDS011;11710;48.024;16.296;2023-04-22T19:27:09;11.60;;;6.03;;
4692;SDS011;11710;48.024;16.296;2023-04-22T19:29:38;10.13;;;6.00;;
4692;SDS011;11710;48.024;16.296;2023-04-22T19:32:05;10.00;;;6.20;;
4692;SDS011;11710;48.024;16.296;2023-04-22T19:34:34;8.50;;;6.30;;
4692;SDS011;11710;48.024;16.296;2023-04-22T19:37:01;9.90;;;7.30;;
4692;SDS011;11710;48.024;16.296;2023-04-22T19:39:29;12.53;;;8.50;;
4692;SDS011;11710;48.024;16.296;2023-04-22T19:41:56;9.77;;;8.30;;
4692;SDS011;11710;48.024;16.296;2023-04-22T19:44:25;12.20;;;8.60;;
4692;SDS011;11710;48.024;16.296;2023-04-22T19:46:52;10.70;;;8.77;;
4692;SDS011;11710;48.024;16.296;2023-04-22T19:49:20;12.30;;;9.10;;
4692;SDS011;11710;48.024;16.296;2023-04-22T19:51:48;10.80;;;8.30;;
4692;SDS011;11710;48.024;16.296;2023-04-22T19:54:16;12.73;;;8.77;;
4692;SDS011;11710;48.024;16.296;2023-04-22T19:56:46;14.17;;;9.97;;
4692;SDS011;11710;48.024;16.296;2023-04-22T19:59:14;12.00;;;8.70;;
4692;SDS011;11710;48.024;16.296;2023-04-22T20:01:43;12.57;;;10.00;;
4692;SDS011;11710;48.024;16.296;2023-04-22T20:04:11;9.40;;;8.40;;
4692;SDS011;11710;48.024;16.296;2023-04-22T20:06:39;11.57;;;7.80;;
4692;SDS011;11710;48.024;16.296;2023-04-22T20:09:06;11.10;;;8.60;;
4692;SDS011;11710;48.024;16.296;2023-04-22T20:11:34;11.40;;;8.30;;
4692;SDS011;11710;48.024;16.296;2023-04-22T20:14:02;17.03;;;9.73;;
4692;SDS011;11710;48.024;16.296;2023-04-22T20:16:31;12.87;;;9.90;;
4692;SDS011;11710;48.024;16.296;2023-04-22T20:19:01;14.23;;;10.47;;
4692;SDS011;11710;48.024;16.296;2023-04-22T20:21:28;17.23;;;9.17;;
4692;SDS011;11710;48.024;16.296;2023-04-22T20:23:57;12.33;;;9.70;;
4692;SDS011;11710;48.024;16.296;2023-04-22T20:26:25;12.27;;;9.37;;
4692;SDS011;11710;48.024;16.296;2023-04-22T20:28:53;23.83;;;11.17;;
